createdAt,value
2023-03-11T00:00:38.219Z,3.00
2023-03-11T00:03:08.304Z,2.15
2023-03-11T00:05:38.841Z,1.75
2023-03-11T00:08:07.249Z,2.58
2023-03-11T00:10:41.154Z,2.40
2023-03-11T00:13:10.729Z,2.50
2023-03-11T00:15:39.372Z,3.58
2023-03-11T00:18:06.424Z,2.67
2023-03-11T00:20:39.054Z,3.13
2023-03-11T00:23:07.547Z,3.03
2023-03-11T00:25:36.895Z,3.13
2023-03-11T00:28:07.186Z,3.40
2023-03-11T00:30:34.032Z,2.63
2023-03-11T00:33:01.120Z,3.13
2023-03-11T00:35:30.481Z,3.13
2023-03-11T00:38:00.751Z,3.17
2023-03-11T00:40:30.228Z,2.72
2023-03-11T00:42:57.385Z,3.25
2023-03-11T00:45:25.010Z,2.45
2023-03-11T00:47:53.293Z,2.97
2023-03-11T00:50:33.442Z,4.10
2023-03-11T00:53:00.787Z,3.80
2023-03-11T00:55:31.436Z,3.55
2023-03-11T00:58:00.513Z,3.88
2023-03-11T01:00:28.802Z,3.10
2023-03-11T01:02:56.361Z,4.03
2023-03-11T01:05:28.255Z,3.88
2023-03-11T01:07:55.663Z,3.92
2023-03-11T01:10:23.151Z,3.63
2023-03-11T01:12:50.348Z,3.70
2023-03-11T01:15:35.539Z,4.32
2023-03-11T01:18:03.645Z,3.22
2023-03-11T01:20:30.792Z,4.32
2023-03-11T01:22:57.970Z,4.18
2023-03-11T01:25:25.450Z,4.13
2023-03-11T01:27:52.369Z,4.43
2023-03-11T01:30:22.254Z,4.78
2023-03-11T01:32:49.479Z,4.05
2023-03-11T01:35:19.364Z,4.32
2023-03-11T01:37:46.835Z,4.13
2023-03-11T01:40:48.305Z,3.90
2023-03-11T01:43:40.897Z,3.40
2023-03-11T01:46:16.179Z,4.00
2023-03-11T01:48:50.511Z,4.72
2023-03-11T01:51:38.027Z,4.15
2023-03-11T01:54:31.872Z,3.92
2023-03-11T01:57:00.267Z,4.00
2023-03-11T01:59:30.397Z,3.50
2023-03-11T02:02:23.650Z,3.78
2023-03-11T02:04:51.488Z,3.50
2023-03-11T02:07:18.663Z,4.03
2023-03-11T02:09:46.710Z,3.53
2023-03-11T02:12:15.113Z,2.60
2023-03-11T02:14:51.535Z,3.30
2023-03-11T02:17:18.619Z,3.70
2023-03-11T02:20:27.466Z,4.00
2023-03-11T02:22:57.281Z,3.13
2023-03-11T02:25:59.999Z,2.75
2023-03-11T02:28:28.472Z,2.10
2023-03-11T02:30:56.919Z,2.40
2023-03-11T02:33:29.196Z,3.28
2023-03-11T02:35:57.686Z,2.08
2023-03-11T02:38:24.511Z,2.30
2023-03-11T02:41:00.232Z,2.33
2023-03-11T02:43:45.093Z,1.88
2023-03-11T02:46:14.220Z,1.45
2023-03-11T02:48:42.196Z,2.22
2023-03-11T02:51:09.167Z,2.25
2023-03-11T02:53:41.570Z,1.85
2023-03-11T02:56:08.437Z,1.90
2023-03-11T02:58:35.499Z,1.90
2023-03-11T03:01:03.438Z,2.10
2023-03-11T03:03:30.444Z,2.38
2023-03-11T03:05:57.327Z,1.95
2023-03-11T03:08:24.384Z,1.83
2023-03-11T03:10:51.159Z,1.88
2023-03-11T03:13:18.081Z,2.63
2023-03-11T03:15:44.905Z,3.17
2023-03-11T03:18:12.057Z,1.95
2023-03-11T03:20:38.814Z,2.10
2023-03-11T03:23:05.548Z,2.90
2023-03-11T03:25:32.291Z,1.95
2023-03-11T03:27:59.064Z,2.45
2023-03-11T03:30:25.808Z,2.47
2023-03-11T03:32:52.736Z,2.35
2023-03-11T03:35:20.238Z,2.70
2023-03-11T03:37:48.167Z,2.10
2023-03-11T03:40:15.168Z,2.63
2023-03-11T03:42:42.062Z,2.45
2023-03-11T03:45:09.858Z,2.00
2023-03-11T03:47:37.120Z,2.10
2023-03-11T03:50:06.577Z,2.28
2023-03-11T03:52:35.568Z,2.85
2023-03-11T03:55:05.403Z,2.30
2023-03-11T03:57:33.072Z,2.25
2023-03-11T03:59:59.891Z,1.77
2023-03-11T04:02:26.766Z,2.10
2023-03-11T04:04:53.413Z,2.33
2023-03-11T04:07:20.169Z,1.58
2023-03-11T04:09:46.983Z,2.40
2023-03-11T04:12:15.040Z,2.20
2023-03-11T04:14:42.264Z,1.90
2023-03-11T04:17:13.936Z,1.77
2023-03-11T04:19:40.911Z,2.33
2023-03-11T04:22:07.727Z,1.08
2023-03-11T04:24:34.807Z,2.28
2023-03-11T04:27:01.711Z,2.20
2023-03-11T04:29:28.580Z,1.90
2023-03-11T04:31:55.255Z,2.05
2023-03-11T04:34:22.176Z,1.88
2023-03-11T04:36:52.898Z,1.65
2023-03-11T04:39:19.801Z,1.50
2023-03-11T04:41:46.494Z,2.22
2023-03-11T04:44:13.257Z,1.80
2023-03-11T04:46:39.898Z,1.95
2023-03-11T04:49:06.572Z,1.42
2023-03-11T04:51:33.619Z,1.30
2023-03-11T04:54:00.821Z,1.80
2023-03-11T04:56:27.554Z,1.80
2023-03-11T04:58:54.414Z,2.20
2023-03-11T05:01:21.137Z,1.70
2023-03-11T05:03:48.206Z,1.23
2023-03-11T05:06:15.022Z,1.50
2023-03-11T05:08:42.029Z,1.45
2023-03-11T05:11:09.070Z,2.15
2023-03-11T05:13:36.204Z,1.88
2023-03-11T05:16:02.998Z,1.73
2023-03-11T05:18:32.226Z,1.20
2023-03-11T05:21:00.201Z,1.52
2023-03-11T05:23:26.919Z,1.65
2023-03-11T05:25:53.674Z,1.85
2023-03-11T05:28:20.533Z,1.30
2023-03-11T05:30:47.506Z,1.88
2023-03-11T05:33:14.809Z,1.40
2023-03-11T05:35:43.219Z,1.70
2023-03-11T05:38:11.574Z,1.95
2023-03-11T05:40:38.312Z,2.28
2023-03-11T05:43:05.242Z,2.58
2023-03-11T05:45:32.154Z,1.70
2023-03-11T05:47:58.931Z,1.90
2023-03-11T05:50:26.003Z,2.10
2023-03-11T05:52:53.085Z,2.17
2023-03-11T05:55:19.866Z,2.58
2023-03-11T05:57:46.697Z,2.42
2023-03-11T06:00:14.215Z,2.10
2023-03-11T06:02:41.805Z,2.03
2023-03-11T06:05:11.064Z,2.00
2023-03-11T06:07:39.751Z,2.22
2023-03-11T06:10:07.481Z,2.50
2023-03-11T06:12:35.267Z,1.95
2023-03-11T06:15:03.167Z,2.00
2023-03-11T06:17:30.573Z,2.47
2023-03-11T06:19:57.411Z,1.70
2023-03-11T06:22:24.542Z,1.83
2023-03-11T06:24:51.930Z,1.88
2023-03-11T06:27:18.794Z,1.55
2023-03-11T06:29:47.675Z,2.38
2023-03-11T06:32:15.414Z,2.00
2023-03-11T06:34:42.049Z,1.70
2023-03-11T06:37:08.784Z,2.58
2023-03-11T06:39:35.508Z,2.35
2023-03-11T06:42:02.324Z,2.28
2023-03-11T06:44:29.115Z,1.40
2023-03-11T06:46:55.873Z,2.10
2023-03-11T06:49:22.708Z,1.80
2023-03-11T06:51:49.501Z,1.75
2023-03-11T06:54:16.248Z,2.13
2023-03-11T06:56:43.009Z,1.80
2023-03-11T06:59:09.968Z,2.30
2023-03-11T07:01:36.890Z,1.30
2023-03-11T07:04:03.778Z,2.13
2023-03-11T07:06:30.741Z,1.40
2023-03-11T07:08:57.661Z,1.52
2023-03-11T07:11:28.265Z,1.25
2023-03-11T07:13:55.141Z,2.15
2023-03-11T07:16:24.999Z,2.05
2023-03-11T07:18:53.004Z,1.67
2023-03-11T07:21:22.097Z,1.20
2023-03-11T07:23:52.872Z,1.52
2023-03-11T07:26:20.175Z,1.48
2023-03-11T07:28:49.274Z,1.90
2023-03-11T07:31:18.805Z,1.30
2023-03-11T07:33:45.848Z,2.40
2023-03-11T07:36:19.434Z,1.83
2023-03-11T07:38:47.379Z,1.10
2023-03-11T07:41:15.441Z,1.73
2023-03-11T07:43:43.076Z,1.73
2023-03-11T07:46:14.041Z,0.98
2023-03-11T07:48:40.988Z,0.88
2023-03-11T07:51:13.541Z,1.30
2023-03-11T07:53:40.718Z,1.65
2023-03-11T07:56:08.811Z,2.40
2023-03-11T07:58:36.205Z,2.35
2023-03-11T08:01:18.193Z,1.88
2023-03-11T08:03:46.581Z,2.90
2023-03-11T08:06:21.433Z,2.60
2023-03-11T08:08:49.192Z,2.83
2023-03-11T08:11:16.993Z,2.95
2023-03-11T08:13:45.442Z,2.83
2023-03-11T08:16:15.313Z,2.97
2023-03-11T08:18:42.509Z,3.40
2023-03-11T08:21:13.262Z,3.47
2023-03-11T08:23:40.316Z,3.60
2023-03-11T08:26:10.172Z,4.25
2023-03-11T08:28:37.534Z,5.10
2023-03-11T08:31:14.636Z,4.53
2023-03-11T08:33:42.082Z,5.10
2023-03-11T08:36:09.196Z,4.82
2023-03-11T08:38:36.108Z,4.55
2023-03-11T08:41:02.959Z,4.72
2023-03-11T08:43:29.774Z,4.90
2023-03-11T08:45:56.457Z,4.55
2023-03-11T08:48:25.436Z,5.03
2023-03-11T08:50:54.618Z,5.43
2023-03-11T08:53:25.132Z,6.30
2023-03-11T08:55:52.738Z,4.75
2023-03-11T08:58:20.455Z,4.75
2023-03-11T09:00:47.693Z,4.88
2023-03-11T09:03:14.542Z,5.35
2023-03-11T09:05:41.723Z,4.82
2023-03-11T09:08:08.473Z,5.53
2023-03-11T09:10:35.329Z,6.20
2023-03-11T09:13:02.087Z,5.18
2023-03-11T09:15:29.090Z,5.53
2023-03-11T09:17:56.774Z,4.13
2023-03-11T09:20:24.032Z,4.28
2023-03-11T09:22:50.903Z,4.70
2023-03-11T09:25:17.753Z,4.60
2023-03-11T09:27:44.460Z,4.05
2023-03-11T09:30:12.034Z,3.65
2023-03-11T09:32:38.783Z,3.88
2023-03-11T09:35:05.923Z,3.70
2023-03-11T09:37:32.732Z,4.03
2023-03-11T09:39:59.463Z,2.92
2023-03-11T09:42:31.623Z,3.30
2023-03-11T09:45:08.438Z,3.08
2023-03-11T09:47:41.688Z,4.05
2023-03-11T09:50:23.916Z,3.60
2023-03-11T09:53:09.134Z,3.65
2023-03-11T09:55:44.263Z,3.75
2023-03-11T09:58:21.962Z,3.42
2023-03-11T10:00:51.975Z,3.65
2023-03-11T10:03:39.673Z,3.50
2023-03-11T10:06:06.919Z,3.60
2023-03-11T10:08:52.274Z,3.10
2023-03-11T10:11:27.147Z,3.28
2023-03-11T10:14:03.274Z,3.17
2023-03-11T10:16:45.496Z,3.65
2023-03-11T10:19:12.294Z,3.53
2023-03-11T10:21:53.022Z,3.20
2023-03-11T10:24:28.179Z,3.22
2023-03-11T10:27:00.110Z,3.17
2023-03-11T10:29:44.988Z,2.65
2023-03-11T10:32:19.849Z,2.53
2023-03-11T10:34:53.157Z,2.65
2023-03-11T10:37:48.235Z,2.13
2023-03-11T10:40:26.137Z,2.40
2023-03-11T10:42:55.200Z,2.45
2023-03-11T10:45:23.546Z,2.03
2023-03-11T10:47:50.468Z,2.38
2023-03-11T10:50:18.453Z,2.10
2023-03-11T10:53:07.732Z,2.72
2023-03-11T10:55:35.585Z,2.20
2023-03-11T10:58:17.443Z,2.00
2023-03-11T11:00:44.566Z,1.77
2023-03-11T11:03:23.174Z,2.00
2023-03-11T11:06:21.885Z,2.15
2023-03-11T11:08:48.600Z,1.55
2023-03-11T11:11:24.041Z,1.63
2023-03-11T11:13:59.309Z,1.95
2023-03-11T11:16:27.264Z,2.05
2023-03-11T11:19:03.726Z,1.73
2023-03-11T11:21:39.380Z,1.48
2023-03-11T11:24:23.254Z,1.70
2023-03-11T11:27:11.917Z,2.00
2023-03-11T11:29:38.936Z,1.33
2023-03-11T11:32:26.085Z,1.80
2023-03-11T11:35:01.616Z,2.15
2023-03-11T11:37:34.661Z,2.22
2023-03-11T11:40:17.086Z,2.60
2023-03-11T11:42:50.554Z,1.52
2023-03-11T11:45:39.238Z,1.88
2023-03-11T11:48:15.406Z,1.70
2023-03-11T11:50:45.998Z,1.60
2023-03-11T11:53:25.277Z,1.30
2023-03-11T11:55:54.194Z,1.02
2023-03-11T11:58:21.953Z,0.90
2023-03-11T12:01:05.769Z,1.10
2023-03-11T12:03:41.448Z,1.20
2023-03-11T12:06:27.898Z,1.23
2023-03-11T12:09:06.271Z,0.82
2023-03-11T12:11:50.558Z,0.60
2023-03-11T12:14:33.781Z,0.65
2023-03-11T12:17:04.271Z,0.73
2023-03-11T12:19:55.434Z,0.50
2023-03-11T12:22:31.122Z,0.50
2023-03-11T12:25:22.552Z,0.40
2023-03-11T12:28:06.312Z,0.50
2023-03-11T12:30:36.984Z,0.52
2023-03-11T12:33:13.998Z,0.30
2023-03-11T12:35:49.864Z,0.38
2023-03-11T12:38:33.286Z,0.52
2023-03-11T12:41:05.592Z,0.50
2023-03-11T12:43:35.046Z,0.47
2023-03-11T12:46:13.343Z,0.50
2023-03-11T12:48:44.579Z,0.35
2023-03-11T12:51:26.756Z,0.40
2023-03-11T12:53:55.413Z,0.30
2023-03-11T12:56:37.117Z,0.40
2023-03-11T12:59:21.649Z,0.55
2023-03-11T13:02:17.284Z,0.40
2023-03-11T13:04:59.152Z,0.40
2023-03-11T13:07:49.186Z,0.40
2023-03-11T13:10:35.787Z,0.50
2023-03-11T13:13:02.970Z,0.40
2023-03-11T13:15:34.271Z,0.38
2023-03-11T13:18:01.039Z,0.82
2023-03-11T13:20:42.803Z,0.40
2023-03-11T13:23:12.522Z,0.50
2023-03-11T13:25:39.492Z,0.20
2023-03-11T13:28:15.263Z,0.30
2023-03-11T13:30:53.843Z,0.20
2023-03-11T13:33:48.525Z,0.25
2023-03-11T13:36:52.874Z,0.30
2023-03-11T13:39:22.385Z,0.28
2023-03-11T13:41:49.438Z,0.30
2023-03-11T13:44:19.164Z,0.20
2023-03-11T13:46:51.113Z,0.38
2023-03-11T13:49:28.445Z,0.20
2023-03-11T13:51:57.010Z,0.40
2023-03-11T13:54:32.625Z,0.47
2023-03-11T13:57:01.515Z,0.30
2023-03-11T13:59:30.161Z,0.40
2023-03-11T14:02:17.266Z,0.40
2023-03-11T14:07:31.796Z,0.40
2023-03-11T14:10:23.113Z,0.60
2023-03-11T14:12:50.431Z,0.98
2023-03-11T14:15:29.170Z,0.80
2023-03-11T14:18:26.710Z,0.60
2023-03-11T14:20:53.911Z,0.63
2023-03-11T14:23:21.175Z,1.00
2023-03-11T14:25:48.415Z,0.80
2023-03-11T14:28:21.672Z,0.77
2023-03-11T14:30:59.415Z,0.85
2023-03-11T14:33:26.576Z,0.90
2023-03-11T14:35:55.107Z,0.77
2023-03-11T14:38:23.991Z,0.70
2023-03-11T14:40:56.853Z,0.70
2023-03-11T14:43:24.142Z,0.80
2023-03-11T14:45:52.674Z,0.80
2023-03-11T14:48:36.276Z,0.80
2023-03-11T14:51:05.979Z,1.15
2023-03-11T14:53:42.692Z,0.85
2023-03-11T14:56:15.928Z,0.73
2023-03-11T14:59:08.394Z,0.80
2023-03-11T15:01:40.970Z,1.20
2023-03-11T15:04:16.158Z,1.13
2023-03-11T15:06:45.054Z,0.60
2023-03-11T15:09:15.753Z,0.70
2023-03-11T15:11:59.844Z,0.70
2023-03-11T15:14:31.621Z,0.50
2023-03-11T15:19:55.118Z,0.70
2023-03-11T15:22:38.667Z,0.85
2023-03-11T15:25:17.027Z,0.80
2023-03-11T15:27:43.893Z,1.02
2023-03-11T15:30:26.038Z,1.13
2023-03-11T15:32:53.595Z,0.70
2023-03-11T15:35:30.609Z,1.00
2023-03-11T15:38:21.536Z,0.80
2023-03-11T15:41:00.991Z,1.23
2023-03-11T15:44:00.117Z,1.15
2023-03-11T15:46:26.919Z,1.40
2023-03-11T15:48:53.702Z,0.90
2023-03-11T15:51:20.812Z,0.90
2023-03-11T15:53:48.730Z,1.38
2023-03-11T15:56:24.119Z,1.50
2023-03-11T15:58:50.970Z,1.67
2023-03-11T16:01:22.822Z,1.20
2023-03-11T16:03:49.727Z,1.88
2023-03-11T16:06:16.537Z,1.17
2023-03-11T16:08:44.892Z,1.10
2023-03-11T16:11:15.436Z,1.27
2023-03-11T16:13:42.182Z,0.90
2023-03-11T16:16:17.143Z,0.88
2023-03-11T16:18:43.863Z,0.90
2023-03-11T16:21:18.812Z,0.50
2023-03-11T16:23:51.988Z,0.60
2023-03-11T16:26:19.771Z,0.47
2023-03-11T16:28:46.660Z,0.55
2023-03-11T16:31:13.566Z,0.40
2023-03-11T16:33:40.359Z,0.47
2023-03-11T16:36:07.521Z,0.50
2023-03-11T16:38:44.553Z,0.30
2023-03-11T16:41:11.649Z,0.88
2023-03-11T16:43:38.402Z,0.90
2023-03-11T16:46:05.313Z,0.30
2023-03-11T16:48:32.045Z,0.82
2023-03-11T16:50:58.889Z,0.50
2023-03-11T16:53:26.290Z,0.80
2023-03-11T16:55:53.728Z,0.60
2023-03-11T16:58:20.798Z,0.60
2023-03-11T17:00:47.916Z,0.40
2023-03-11T17:03:21.200Z,0.52
2023-03-11T17:05:48.632Z,1.00
2023-03-11T17:08:18.055Z,0.90
2023-03-11T17:10:45.967Z,0.98
2023-03-11T17:13:14.144Z,0.80
2023-03-11T17:15:44.425Z,0.95
2023-03-11T17:18:12.522Z,1.33
2023-03-11T17:20:40.805Z,1.25
2023-03-11T17:23:07.488Z,1.25
2023-03-11T17:25:34.270Z,1.30
2023-03-11T17:28:01.007Z,1.23
2023-03-11T17:30:36.940Z,0.68
2023-03-11T17:33:04.409Z,1.00
2023-03-11T17:35:31.184Z,1.30
2023-03-11T17:37:57.967Z,1.10
2023-03-11T17:40:26.789Z,1.00
2023-03-11T17:42:53.646Z,1.00
2023-03-11T17:45:20.747Z,0.60
2023-03-11T17:47:47.600Z,0.52
2023-03-11T17:50:14.251Z,1.02
2023-03-11T17:52:41.118Z,0.95
2023-03-11T17:55:08.437Z,1.10
2023-03-11T17:57:44.427Z,1.13
2023-03-11T18:00:14.620Z,1.25
2023-03-11T18:02:41.532Z,1.90
2023-03-11T18:05:09.356Z,0.80
2023-03-11T18:07:39.549Z,0.75
2023-03-11T18:10:07.730Z,0.90
2023-03-11T18:12:34.796Z,0.55
2023-03-11T18:15:08.159Z,0.90
2023-03-11T18:17:35.540Z,1.33
2023-03-11T18:20:02.860Z,1.00
2023-03-11T18:22:29.609Z,0.98
2023-03-11T18:24:57.657Z,0.80
2023-03-11T18:27:24.641Z,0.77
2023-03-11T18:29:51.629Z,0.50
2023-03-11T18:32:20.665Z,0.90
2023-03-11T18:34:50.682Z,0.60
2023-03-11T18:37:17.482Z,0.80
2023-03-11T18:39:44.296Z,1.30
2023-03-11T18:42:11.139Z,1.50
2023-03-11T18:44:37.855Z,0.77
2023-03-11T18:47:04.579Z,1.45
2023-03-11T18:49:31.437Z,0.70
2023-03-11T18:51:58.319Z,1.13
2023-03-11T18:54:25.080Z,1.98
2023-03-11T18:56:51.797Z,1.00
2023-03-11T18:59:18.518Z,0.63
2023-03-11T19:01:45.353Z,1.02
2023-03-11T19:04:12.361Z,0.82
2023-03-11T19:06:39.672Z,1.13
2023-03-11T19:09:06.663Z,0.50
2023-03-11T19:11:33.691Z,1.05
2023-03-11T19:14:00.472Z,0.95
2023-03-11T19:16:27.644Z,1.10
2023-03-11T19:18:55.227Z,1.27
2023-03-11T19:21:22.773Z,0.93
2023-03-11T19:23:52.697Z,1.05
2023-03-11T19:26:20.157Z,0.80
2023-03-11T19:28:47.725Z,1.15
2023-03-11T19:31:14.878Z,0.60
2023-03-11T19:33:45.778Z,1.20
2023-03-11T19:36:13.021Z,1.15
2023-03-11T19:38:39.839Z,0.90
2023-03-11T19:41:10.645Z,1.23
2023-03-11T19:43:37.740Z,1.05
2023-03-11T19:46:05.534Z,1.27
2023-03-11T19:48:32.708Z,1.35
2023-03-11T19:50:59.812Z,0.70
2023-03-11T19:53:26.823Z,0.82
2023-03-11T19:55:56.344Z,1.50
2023-03-11T19:58:24.668Z,0.90
2023-03-11T20:00:52.234Z,0.50
2023-03-11T20:03:20.841Z,1.20
2023-03-11T20:05:49.468Z,1.25
2023-03-11T20:08:18.825Z,0.80
2023-03-11T20:10:48.901Z,1.40
2023-03-11T20:13:17.518Z,1.77
2023-03-11T20:15:44.404Z,1.38
2023-03-11T20:18:11.434Z,1.67
2023-03-11T20:20:39.623Z,1.30
2023-03-11T20:23:06.485Z,1.20
2023-03-11T20:25:34.865Z,1.23
2023-03-11T20:28:01.836Z,0.95
2023-03-11T20:30:29.150Z,0.90
2023-03-11T20:32:56.455Z,1.33
2023-03-11T20:35:23.425Z,1.35
2023-03-11T20:37:50.670Z,1.50
2023-03-11T20:40:18.566Z,0.60
2023-03-11T20:42:47.195Z,0.93
2023-03-11T20:45:21.873Z,1.52
2023-03-11T20:47:50.340Z,1.45
2023-03-11T20:50:17.347Z,0.70
2023-03-11T20:52:44.463Z,0.73
2023-03-11T20:55:11.972Z,1.00
2023-03-11T20:57:39.540Z,0.93
2023-03-11T21:00:11.420Z,1.00
2023-03-11T21:05:11.298Z,0.93
2023-03-11T21:07:38.448Z,1.10
2023-03-11T21:10:09.071Z,1.08
2023-03-11T21:12:35.781Z,1.77
2023-03-11T21:15:04.174Z,1.77
2023-03-11T21:17:31.015Z,1.40
2023-03-11T21:19:57.835Z,0.88
2023-03-11T21:22:24.999Z,1.13
2023-03-11T21:24:53.421Z,1.50
2023-03-11T21:27:26.215Z,1.67
2023-03-11T21:29:54.631Z,0.75
2023-03-11T21:32:22.816Z,0.90
2023-03-11T21:34:50.006Z,1.17
2023-03-11T21:37:17.119Z,1.30
2023-03-11T21:39:44.022Z,1.20
2023-03-11T21:42:11.217Z,0.50
2023-03-11T21:44:38.067Z,0.88
2023-03-11T21:47:05.859Z,1.80
2023-03-11T21:49:33.050Z,1.20
2023-03-11T21:52:02.220Z,0.60
2023-03-11T21:54:29.310Z,0.90
2023-03-11T21:56:56.577Z,1.00
2023-03-11T21:59:25.490Z,0.90
2023-03-11T22:01:53.042Z,0.50
2023-03-11T22:04:20.180Z,1.00
2023-03-11T22:06:47.013Z,0.50
2023-03-11T22:09:13.979Z,0.50
2023-03-11T22:11:41.017Z,0.75
2023-03-11T22:14:07.813Z,0.75
2023-03-11T22:16:34.819Z,0.50
2023-03-11T22:19:01.835Z,0.70
2023-03-11T22:21:28.567Z,1.02
2023-03-11T22:23:55.277Z,0.80
2023-03-11T22:26:22.053Z,0.60
2023-03-11T22:28:48.735Z,0.70
2023-03-11T22:31:16.211Z,0.38
2023-03-11T22:33:42.968Z,0.70
2023-03-11T22:36:10.154Z,0.73
2023-03-11T22:38:37.227Z,0.70
2023-03-11T22:41:08.112Z,0.88
2023-03-11T22:43:35.654Z,0.88
2023-03-11T22:46:04.667Z,0.70
2023-03-11T22:48:32.949Z,1.05
2023-03-11T22:50:59.931Z,0.90
2023-03-11T22:53:26.968Z,0.82
2023-03-11T22:55:53.927Z,0.85
2023-03-11T22:58:20.781Z,0.80
2023-03-11T23:00:48.355Z,1.27
2023-03-11T23:03:16.523Z,0.80
2023-03-11T23:05:45.798Z,0.85
2023-03-11T23:08:15.187Z,0.45
2023-03-11T23:10:44.494Z,0.50
2023-03-11T23:13:12.486Z,0.90
2023-03-11T23:15:44.383Z,0.50
2023-03-11T23:18:11.817Z,0.98
2023-03-11T23:20:40.044Z,0.50
2023-03-11T23:23:08.001Z,0.50
2023-03-11T23:25:35.653Z,0.82
2023-03-11T23:28:04.090Z,0.75
2023-03-11T23:30:31.458Z,0.73
2023-03-11T23:32:59.504Z,0.95
2023-03-11T23:35:26.456Z,0.55
2023-03-11T23:37:53.184Z,1.00
2023-03-11T23:40:20.098Z,1.42
2023-03-11T23:42:46.870Z,1.23
2023-03-11T23:45:13.801Z,0.88
2023-03-11T23:47:40.503Z,0.70
2023-03-11T23:50:07.940Z,0.90
2023-03-11T23:52:35.184Z,1.05
2023-03-11T23:55:02.031Z,0.50
2023-03-11T23:57:28.806Z,0.63
2023-03-11T23:59:55.663Z,1.05
